createdAt,value
2022-08-27T00:04:55.012Z,5.55
2022-08-27T00:09:57.196Z,7.50
2022-08-27T00:14:59.350Z,6.93
2022-08-27T00:20:02.029Z,7.03
2022-08-27T00:25:05.412Z,4.40
2022-08-27T00:30:11.372Z,5.63
2022-08-27T00:35:14.210Z,6.95
2022-08-27T00:40:20.563Z,2.20
2022-08-27T00:45:23.876Z,3.65
2022-08-27T00:50:40.332Z,7.30
2022-08-27T00:55:46.992Z,8.25
2022-08-27T01:00:49.371Z,5.20
2022-08-27T01:05:53.306Z,5.70
2022-08-27T01:10:57.960Z,5.75
2022-08-27T01:16:01.179Z,5.78
2022-08-27T01:21:26.734Z,6.00
2022-08-27T01:26:30.472Z,5.47
2022-08-27T01:31:32.684Z,8.25
2022-08-27T01:36:34.860Z,4.77
2022-08-27T01:41:36.996Z,4.40
2022-08-27T01:46:39.701Z,6.40
2022-08-27T01:51:41.875Z,3.37
2022-08-27T01:56:44.008Z,3.57
2022-08-27T02:01:46.173Z,6.67
2022-08-27T02:06:48.372Z,2.60
2022-08-27T02:11:50.560Z,7.07
2022-08-27T02:16:53.155Z,3.00
2022-08-27T02:21:55.472Z,4.05
2022-08-27T02:26:57.656Z,5.17
2022-08-27T02:32:00.101Z,6.57
2022-08-27T02:37:02.403Z,3.05
2022-08-27T02:42:04.639Z,5.53
2022-08-27T02:47:06.873Z,9.37
2022-08-27T02:52:09.364Z,7.77
2022-08-27T02:57:11.581Z,9.73
2022-08-27T03:02:14.001Z,5.50
2022-08-27T03:07:19.047Z,6.03
2022-08-27T03:12:22.907Z,4.28
2022-08-27T03:17:27.114Z,5.20
2022-08-27T03:22:29.289Z,4.93
2022-08-27T03:27:31.476Z,6.00
2022-08-27T03:32:34.787Z,8.17
2022-08-27T03:37:37.141Z,5.40
2022-08-27T03:42:39.807Z,4.20
2022-08-27T03:47:42.150Z,2.30
2022-08-27T03:52:44.272Z,5.37
2022-08-27T03:57:46.393Z,4.10
2022-08-27T04:02:48.610Z,7.03
2022-08-27T04:07:50.775Z,8.20
2022-08-27T04:12:53.180Z,3.93
2022-08-27T04:17:57.379Z,2.63
2022-08-27T04:22:59.521Z,8.07
2022-08-27T04:28:01.869Z,7.90
2022-08-27T04:33:04.132Z,5.68
2022-08-27T04:38:07.489Z,5.78
2022-08-27T04:43:09.688Z,3.43
2022-08-27T04:48:13.965Z,5.03
2022-08-27T04:53:17.294Z,6.55
2022-08-27T04:58:21.736Z,4.57
2022-08-27T05:03:24.837Z,7.57
2022-08-27T05:13:29.559Z,7.18
2022-08-27T05:18:34.212Z,6.10
2022-08-27T05:23:39.870Z,6.45
2022-08-27T05:28:42.926Z,5.80
2022-08-27T05:38:48.452Z,6.47
2022-08-27T05:43:51.436Z,6.18
2022-08-27T05:48:57.157Z,5.68
2022-08-27T05:54:08.746Z,7.95
2022-08-27T05:59:11.730Z,4.75
2022-08-27T06:04:18.142Z,4.78
2022-08-27T06:09:24.880Z,6.80
2022-08-27T06:14:27.492Z,4.88
2022-08-27T06:19:30.140Z,5.20
2022-08-27T06:24:32.475Z,6.38
2022-08-27T06:29:34.633Z,6.82
2022-08-27T06:34:37.423Z,5.80
2022-08-27T06:39:40.488Z,7.82
2022-08-27T06:44:42.918Z,3.92
2022-08-27T06:49:46.567Z,5.80
2022-08-27T06:54:48.991Z,5.93
2022-08-27T06:59:53.657Z,4.40
2022-08-27T07:04:56.489Z,4.97
2022-08-27T07:10:09.825Z,3.97
2022-08-27T07:15:12.256Z,4.82
2022-08-27T07:25:18.948Z,8.80
2022-08-27T07:30:21.138Z,7.85
2022-08-27T07:35:29.234Z,3.03
2022-08-27T07:40:32.552Z,7.05
2022-08-27T07:45:44.888Z,6.50
2022-08-27T07:50:47.162Z,5.10
2022-08-27T07:55:49.373Z,13.52
2022-08-27T08:00:51.664Z,4.85
2022-08-27T08:05:54.958Z,8.90
2022-08-27T08:10:58.151Z,5.07
2022-08-27T08:16:00.524Z,4.95
2022-08-27T08:21:06.150Z,4.25
2022-08-27T08:26:09.441Z,3.10
2022-08-27T08:31:12.370Z,5.82
2022-08-27T08:36:16.039Z,6.45
2022-08-27T08:41:44.205Z,3.60
2022-08-27T08:46:53.151Z,3.33
2022-08-27T08:52:02.735Z,4.80
2022-08-27T08:57:30.689Z,4.90
2022-08-27T09:02:33.190Z,6.00
2022-08-27T09:07:43.705Z,7.53
2022-08-27T09:12:46.048Z,8.52
2022-08-27T09:17:48.299Z,4.57
2022-08-27T09:23:14.513Z,3.17
2022-08-27T09:28:28.481Z,3.75
2022-08-27T09:33:44.451Z,5.70
2022-08-27T09:39:01.197Z,4.43
2022-08-27T09:44:10.411Z,6.13
2022-08-27T09:49:15.531Z,3.55
2022-08-27T09:54:40.783Z,4.05
2022-08-27T09:59:54.876Z,4.43
2022-08-27T10:05:01.288Z,4.43
2022-08-27T10:10:17.807Z,3.47
2022-08-27T10:15:19.980Z,5.68
2022-08-27T10:20:56.397Z,5.53
2022-08-27T10:26:14.969Z,3.40
2022-08-27T10:31:41.904Z,6.10
2022-08-27T10:37:07.333Z,5.10
2022-08-27T10:42:18.671Z,4.43
2022-08-27T10:47:36.124Z,9.88
2022-08-27T10:52:45.338Z,4.50
2022-08-27T10:58:22.675Z,3.35
2022-08-27T11:03:35.835Z,4.72
2022-08-27T11:08:47.046Z,3.25
2022-08-27T11:13:52.903Z,6.15
2022-08-27T11:19:12.549Z,2.38
2022-08-27T11:25:00.114Z,5.95
2022-08-27T11:30:38.362Z,3.92
2022-08-27T11:36:14.289Z,4.18
2022-08-27T11:41:45.246Z,6.05
2022-08-27T11:46:54.542Z,4.80
2022-08-27T11:52:04.457Z,6.57
2022-08-27T11:57:15.199Z,4.00
2022-08-27T12:02:23.907Z,5.95
2022-08-27T12:07:32.937Z,17.10
2022-08-27T12:13:07.077Z,5.70
2022-08-27T12:18:27.992Z,6.70
2022-08-27T12:23:44.751Z,5.35
2022-08-27T12:28:47.061Z,5.25
2022-08-27T12:33:53.215Z,8.32
2022-08-27T12:38:59.595Z,3.67
2022-08-27T12:44:10.982Z,4.65
2022-08-27T12:49:38.626Z,6.63
2022-08-27T12:54:53.190Z,2.88
2022-08-27T13:00:15.130Z,4.05
2022-08-27T13:05:22.312Z,4.47
2022-08-27T13:10:28.671Z,9.90
2022-08-27T13:15:31.491Z,2.72
2022-08-27T13:20:37.123Z,6.95
2022-08-27T13:25:39.440Z,3.22
2022-08-27T13:30:44.959Z,4.82
2022-08-27T13:35:47.504Z,3.90
2022-08-27T13:40:57.733Z,5.57
2022-08-27T13:46:02.445Z,3.75
2022-08-27T13:51:04.773Z,3.25
2022-08-27T13:56:07.891Z,4.13
2022-08-27T14:01:23.154Z,5.50
2022-08-27T14:06:35.610Z,4.72
2022-08-27T14:11:38.703Z,3.83
2022-08-27T14:16:40.957Z,3.80
2022-08-27T14:21:43.185Z,6.10
2022-08-27T14:26:53.012Z,5.38
2022-08-27T14:31:55.204Z,4.47
2022-08-27T14:36:57.379Z,3.55
2022-08-27T14:42:00.870Z,3.65
2022-08-27T14:47:05.464Z,6.00
2022-08-27T14:52:12.951Z,4.05
2022-08-27T14:57:15.146Z,3.15
2022-08-27T15:02:17.354Z,5.55
2022-08-27T15:07:19.573Z,5.60
2022-08-27T15:12:26.451Z,4.03
2022-08-27T15:17:34.770Z,4.43
2022-08-27T15:22:44.015Z,9.98
2022-08-27T15:27:46.595Z,3.95
2022-08-27T15:32:49.152Z,3.65
2022-08-27T15:37:51.449Z,4.68
2022-08-27T15:42:58.196Z,6.40
2022-08-27T15:48:00.868Z,3.30
2022-08-27T15:53:07.968Z,4.43
2022-08-27T15:58:10.967Z,4.25
2022-08-27T16:03:15.592Z,6.50
2022-08-27T16:08:17.736Z,4.50
2022-08-27T16:18:29.391Z,7.15
2022-08-27T16:23:32.530Z,5.72
2022-08-27T16:28:34.697Z,6.63
2022-08-27T16:33:36.856Z,1.90
2022-08-27T16:38:41.994Z,8.57
2022-08-27T16:43:44.819Z,2.95
2022-08-27T16:48:47.018Z,6.13
2022-08-27T16:53:50.669Z,3.03
2022-08-27T16:58:52.943Z,3.78
2022-08-27T17:04:09.008Z,5.70
2022-08-27T17:09:13.895Z,7.85
2022-08-27T17:19:18.219Z,7.43
2022-08-27T17:24:20.521Z,7.68
2022-08-27T17:29:22.682Z,7.55
2022-08-27T17:34:25.273Z,5.35
2022-08-27T17:39:28.226Z,9.38
2022-08-27T17:49:34.373Z,9.68
2022-08-27T17:54:45.977Z,9.00
2022-08-27T17:59:49.231Z,8.82
2022-08-27T18:04:51.648Z,10.10
2022-08-27T18:09:53.974Z,11.07
2022-08-27T18:14:58.793Z,9.07
2022-08-27T18:20:01.100Z,13.32
2022-08-27T18:25:03.869Z,8.43
2022-08-27T18:30:07.092Z,9.90
2022-08-27T18:35:19.043Z,10.48
2022-08-27T18:40:23.908Z,7.93
2022-08-27T18:45:28.474Z,7.10
2022-08-27T18:50:30.872Z,14.63
2022-08-27T18:55:33.057Z,13.63
2022-08-27T19:00:35.606Z,11.13
2022-08-27T19:05:43.237Z,12.93
2022-08-27T19:10:45.435Z,10.70
2022-08-27T19:16:21.584Z,13.70
2022-08-27T19:21:24.444Z,9.13
2022-08-27T19:26:26.774Z,12.55
2022-08-27T19:31:39.043Z,15.30
2022-08-27T19:36:43.491Z,14.68
2022-08-27T19:46:51.206Z,11.55
2022-08-27T19:51:53.722Z,11.57
2022-08-27T19:56:55.901Z,15.47
2022-08-27T20:01:58.239Z,10.88
2022-08-27T20:07:00.615Z,12.03
2022-08-27T20:12:03.094Z,14.17
2022-08-27T20:17:05.252Z,11.67
2022-08-27T20:22:09.950Z,14.57
2022-08-27T20:27:12.342Z,14.50
2022-08-27T20:32:14.535Z,11.40
2022-08-27T20:37:17.324Z,12.25
2022-08-27T20:42:20.380Z,8.13
2022-08-27T20:47:25.466Z,11.45
2022-08-27T20:52:27.718Z,12.50
2022-08-27T20:57:29.936Z,18.23
2022-08-27T21:02:32.154Z,10.85
2022-08-27T21:07:34.472Z,15.73
2022-08-27T21:12:36.770Z,14.80
2022-08-27T21:17:39.610Z,13.60
2022-08-27T21:22:43.380Z,13.77
2022-08-27T21:27:45.542Z,17.35
2022-08-27T21:32:48.712Z,14.73
2022-08-27T21:37:50.915Z,15.02
2022-08-27T21:42:54.779Z,10.55
2022-08-27T21:47:56.955Z,16.55
2022-08-27T21:52:59.275Z,9.90
2022-08-27T21:58:01.466Z,16.63
2022-08-27T22:03:03.825Z,19.35
2022-08-27T22:08:06.130Z,12.97
2022-08-27T22:13:09.045Z,18.35
2022-08-27T22:18:12.597Z,13.93
2022-08-27T22:23:14.921Z,14.65
2022-08-27T22:28:18.455Z,16.90
2022-08-27T22:33:20.957Z,14.63
2022-08-27T22:38:23.136Z,10.02
2022-08-27T22:43:27.077Z,12.57
2022-08-27T22:48:29.230Z,13.80
2022-08-27T22:53:31.369Z,14.18
2022-08-27T22:58:33.523Z,10.48
2022-08-27T23:03:35.895Z,13.68
2022-08-27T23:08:38.193Z,15.90
2022-08-27T23:13:40.395Z,12.48
2022-08-27T23:18:43.215Z,11.88
2022-08-27T23:23:45.527Z,17.52
2022-08-27T23:28:47.689Z,15.52
2022-08-27T23:33:54.531Z,11.63
2022-08-27T23:38:57.083Z,14.30
2022-08-27T23:43:59.214Z,19.90
2022-08-27T23:49:01.450Z,15.35
2022-08-27T23:54:03.738Z,11.50
2022-08-27T23:59:06.015Z,15.60
